Terminal Aerodrome Forecast
Issued by NWS

Home | Current Version | Previous Version | Text Only | Print | Product List | Glossary On
Versions: 1 2 3 4 5 6 7 8 9 10 11 12 13 14 15
000
FTUS45 KRIW 270500
TAFCPR
TAF
KCPR 270523Z 2706/2806 VRB04KT P6SM VCSH SCT025 OVC045
      TEMPO 2706/2709 BKN025
     FM271000 VRB05KT P6SM SCT050
     FM271600 18006KT P6SM SCT050
     FM280200 01006KT P6SM SCT035 BKN050=

USA.gov is the U.S. government's official web portal to all federal, state and local government web resources and services.